Time;durP1;ratioP1;P1;durP2;ratioP2;P2;SDS_P1;SDS_P2;PMS_P1;PMS_P2;Temp;Humidity;BMP_temperature;BMP_pressure;BME280_temperature;BME280_humidity;BME280_pressure;Samples;Min_cycle;Max_cycle;Signal;HPM_P1;HPM_P2
2021/11/14 00:01:25;;;;;;;;;;;;;;;;;;5058400;28;20393;-77
2021/11/14 00:03:50;;;;;;;;;;;;;;;;;;5058906;28;19920;-77
2021/11/14 00:06:20;;;;;;;;;;;;;;;;;;5059119;28;20352;-77
2021/11/14 00:08:45;;;;;;;;;;;;;;;;;;5057985;28;19917;-78
2021/11/14 00:11:13;;;;;;;;;;;;;;;;;;5059065;28;19919;-78
2021/11/14 00:13:39;;;;;;;;;;;;;;;;;;5059630;28;19916;-78
2021/11/14 00:16:07;;;;;;;;;;;;;;;;;;5058430;28;19924;-77
2021/11/14 00:18:32;;;;;;;;;;;;;;;;;;5058361;28;19944;-78
2021/11/14 00:20:57;;;;;;;;;;;;;;;;;;5058723;28;19920;-78
2021/11/14 00:23:23;;;;;;;;;;;;;;;;;;5059452;28;19919;-78
2021/11/14 00:25:48;;;;;;;;;;;;;;;;;;5057592;28;20330;-78
2021/11/14 00:28:13;;;;;;;;;;;;;;;;;;5059214;28;19928;-78
2021/11/14 00:30:47;;;;;;;;;;;;;;;;;;5057919;28;20405;-78
2021/11/14 00:33:15;;;;;;;;;;;;;;;;;;5059553;28;20014;-78
2021/11/14 00:35:40;;;;;;;;;;;;;;;;;;5066135;28;19918;-78
2021/11/14 00:38:06;;;;;;;;;;;;;;;;;;5083001;28;20007;-78
2021/11/14 00:40:33;;;;;;;;;;;;;;;;;;5083485;28;20285;-78
2021/11/14 00:42:59;;;;;;;;;;;;;;;;;;5083532;28;19919;-78
2021/11/14 00:45:25;;;;;;;;;;;;;;;;;;5084027;28;20011;-78
2021/11/14 00:47:51;;;;;;;;;;;;;;;;;;5083976;28;19919;-78
2021/11/14 00:50:16;;;;;;;;;;;;;;;;;;5081801;28;19912;-78
2021/11/14 00:52:43;;;;;;;;;;;;;;;;;;5083224;28;19920;-78
2021/11/14 00:55:10;;;;;;;;;;;;;;;;;;5081068;28;19912;-78
2021/11/14 00:57:35;;;;;;;;;;;;;;;;;;5082903;28;19963;-78
2021/11/14 01:00:01;;;;;;;;;;;;;;;;;;5083308;28;19913;-78
2021/11/14 01:02:26;;;;;;;;;;;;;;;;;;5083182;28;19912;-78
2021/11/14 01:04:52;;;;;;;;;;;;;;;;;;5082147;28;20015;-78
2021/11/14 01:07:17;;;;;;;;;;;;;;;;;;5063271;28;19959;-78
2021/11/14 01:09:42;;;;;;;;;;;;;;;;;;5062046;28;19920;-78
2021/11/14 01:12:08;;;;;;;;;;;;;;;;;;5065927;28;19970;-78
2021/11/14 01:14:35;;;;;;;;;;;;;;;;;;5067256;28;19917;-78
2021/11/14 01:17:01;;;;;;;;;;;;;;;;;;5066135;28;20350;-78
2021/11/14 01:19:26;;;;;;;;;;;;;;;;;;5065308;28;19912;-78
2021/11/14 01:21:51;;;;;;;;;;;;;;;;;;5064283;28;20010;-78
2021/11/14 01:24:17;;;;;;;;;;;;;;;;;;5065467;28;19912;-78
2021/11/14 01:26:43;;;;;;;;;;;;;;;;;;5064085;28;19913;-78
2021/11/14 01:29:08;;;;;;;;;;;;;;;;;;5062703;28;19920;-78
2021/11/14 01:31:34;;;;;;;;;;;;;;;;;;5062972;28;19913;-78
2021/11/14 01:33:59;;;;;;;;;;;;;;;;;;5061814;28;19917;-78
2021/11/14 01:36:24;;;;;;;;;;;;;;;;;;5063077;28;19916;-78
2021/11/14 01:38:50;;;;;;;;;;;;;;;;;;5063407;28;19920;-78
2021/11/14 01:41:16;;;;;;;;;;;;;;;;;;5063053;28;19917;-78
2021/11/14 01:43:46;;;;;;;;;;;;;;;;;;5062377;28;19923;-78
2021/11/14 01:46:12;;;;;;;;;;;;;;;;;;5063251;28;19952;-78
2021/11/14 01:48:37;;;;;;;;;;;;;;;;;;5060964;28;19919;-78
2021/11/14 01:51:04;;;;;;;;;;;;;;;;;;5062133;28;19921;-78
2021/11/14 01:53:30;;;;;;;;;;;;;;;;;;5061802;28;20011;-78
2021/11/14 01:55:56;;;;;;;;;;;;;;;;;;5060142;28;20014;-78
2021/11/14 01:58:24;;;;;;;;;;;;;;;;;;5062364;28;20027;-78
2021/11/14 02:00:52;;;;;;;;;;;;;;;;;;5061837;28;19919;-78
2021/11/14 02:03:18;;;;;;;;;;;;;;;;;;5061361;28;19919;-78
2021/11/14 02:05:44;;;;;;;;;;;;;;;;;;5061201;28;19908;-78
2021/11/14 02:08:09;;;;;;;;;;;;;;;;;;5061884;28;20273;-78
2021/11/14 02:10:35;;;;;;;;;;;;;;;;;;5060804;28;19924;-78
2021/11/14 02:13:02;;;;;;;;;;;;;;;;;;5060607;28;19962;-78
2021/11/14 02:15:27;;;;;;;;;;;;;;;;;;5063227;28;19913;-78
2021/11/14 02:17:53;;;;;;;;;;;;;;;;;;5062812;28;19927;-78
2021/11/14 02:20:19;;;;;;;;;;;;;;;;;;5063899;28;19913;-78
2021/11/14 02:22:45;;;;;;;;;;;;;;;;;;5064044;28;20660;-78
2021/11/14 02:25:12;;;;;;;;;;;;;;;;;;5064265;28;20389;-78
2021/11/14 02:27:38;;;;;;;;;;;;;;;;;;5061565;28;19920;-78
2021/11/14 02:30:05;;;;;;;;;;;;;;;;;;5063520;28;19978;-78
2021/11/14 02:32:30;;;;;;;;;;;;;;;;;;5064175;28;19913;-78
2021/11/14 02:34:55;;;;;;;;;;;;;;;;;;5063674;28;20338;-78
2021/11/14 02:37:21;;;;;;;;;;;;;;;;;;5063328;28;19966;-78
2021/11/14 02:39:46;;;;;;;;;;;;;;;;;;5063744;28;19913;-78
2021/11/14 02:42:12;;;;;;;;;;;;;;;;;;5063352;28;19913;-78
2021/11/14 02:44:37;;;;;;;;;;;;;;;;;;5066763;28;20372;-79
2021/11/14 02:47:03;;;;;;;;;;;;;;;;;;5065980;28;19919;-78
2021/11/14 02:49:28;;;;;;;;;;;;;;;;;;5063097;28;19912;-78
2021/11/14 02:51:54;;;;;;;;;;;;;;;;;;5061904;28;19918;-78
2021/11/14 02:54:20;;;;;;;;;;;;;;;;;;5062810;28;19920;-78
2021/11/14 02:56:46;;;;;;;;;;;;;;;;;;5063095;28;19913;-78
2021/11/14 02:59:11;;;;;;;;;;;;;;;;;;5062191;28;19913;-78
2021/11/14 03:01:48;;;;;;;;;;;;;;;;;;5064340;28;20152;-78
2021/11/14 03:04:19;;;;;;;;;;;;;;;;;;5064502;28;19913;-78
2021/11/14 03:06:45;;;;;;;;;;;;;;;;;;5063194;28;19924;-78
2021/11/14 03:09:10;;;;;;;;;;;;;;;;;;5062981;28;20354;-78
2021/11/14 03:11:36;;;;;;;;;;;;;;;;;;5062693;28;20270;-78
2021/11/14 03:14:02;;;;;;;;;;;;;;;;;;5062717;28;19924;-78
2021/11/14 03:16:28;;;;;;;;;;;;;;;;;;5062956;28;19912;-78
2021/11/14 03:18:54;;;;;;;;;;;;;;;;;;5062157;28;19919;-78
2021/11/14 03:21:20;;;;;;;;;;;;;;;;;;5062694;28;20271;-78
2021/11/14 03:23:45;;;;;;;;;;;;;;;;;;5063152;28;19999;-78
2021/11/14 03:26:10;;;;;;;;;;;;;;;;;;5064201;28;20011;-78
2021/11/14 03:28:36;;;;;;;;;;;;;;;;;;5063346;28;19912;-78
2021/11/14 03:31:01;;;;;;;;;;;;;;;;;;5062115;28;19928;-78
2021/11/14 03:33:27;;;;;;;;;;;;;;;;;;5062154;28;20004;-78
2021/11/14 03:35:54;;;;;;;;;;;;;;;;;;5062139;28;19916;-78
2021/11/14 03:38:22;;;;;;;;;;;;;;;;;;5061939;28;20306;-78
2021/11/14 03:40:47;;;;;;;;;;;;;;;;;;5062054;28;19919;-78
2021/11/14 03:43:13;;;;;;;;;;;;;;;;;;5065530;28;19917;-79
2021/11/14 03:45:38;;;;;;;;;;;;;;;;;;5071149;28;19912;-78
2021/11/14 03:48:04;;;;;;;;;;;;;;;;;;5069918;28;19920;-79
2021/11/14 03:50:30;;;;;;;;;;;;;;;;;;5056924;28;19912;-77
2021/11/14 03:52:55;;;;;;;;;;;;;;;;;;5056025;28;19913;-78
2021/11/14 03:55:20;;;;;;;;;;;;;;;;;;5062803;28;19916;-79
2021/11/14 03:57:46;;;;;;;;;;;;;;;;;;5062682;28;19912;-78
2021/11/14 04:00:14;;;;;;;;;;;;;;;;;;5063157;28;19912;-78
2021/11/14 04:02:39;;;;;;;;;;;;;;;;;;5060848;28;19913;-78
2021/11/14 04:05:04;;;;;;;;;;;;;;;;;;5062210;28;19924;-79
2021/11/14 04:07:30;;;;;;;;;;;;;;;;;;5063522;28;19919;-79
2021/11/14 04:09:55;;;;;;;;;;;;;;;;;;5061474;28;20035;-78
2021/11/14 04:12:20;;;;;;;;;;;;;;;;;;5062332;28;19934;-78
2021/11/14 04:14:46;;;;;;;;;;;;;;;;;;5066040;28;19917;-78
2021/11/14 04:17:11;;;;;;;;;;;;;;;;;;5064196;28;19912;-79
2021/11/14 04:19:36;;;;;;;;;;;;;;;;;;5064496;28;20272;-79
2021/11/14 04:22:02;;;;;;;;;;;;;;;;;;5064099;28;20390;-78
2021/11/14 04:24:27;;;;;;;;;;;;;;;;;;5063785;28;20015;-78
2021/11/14 04:26:52;;;;;;;;;;;;;;;;;;5050381;28;19998;-77
2021/11/14 04:29:20;;;;;;;;;;;;;;;;;;5043051;28;19913;-78
2021/11/14 04:31:46;;;;;;;;;;;;;;;;;;5044996;28;19913;-78
2021/11/14 04:34:11;;;;;;;;;;;;;;;;;;5043535;28;20434;-78
2021/11/14 04:36:36;;;;;;;;;;;;;;;;;;5065913;28;19912;-78
2021/11/14 04:39:02;;;;;;;;;;;;;;;;;;5083965;28;19919;-78
2021/11/14 04:41:28;;;;;;;;;;;;;;;;;;5081177;28;19927;-78
2021/11/14 04:43:53;;;;;;;;;;;;;;;;;;5075879;28;19916;-78
2021/11/14 04:46:18;;;;;;;;;;;;;;;;;;5081315;28;20343;-78
2021/11/14 04:48:44;;;;;;;;;;;;;;;;;;5081076;28;19971;-78
2021/11/14 04:51:09;;;;;;;;;;;;;;;;;;5079750;28;20275;-78
2021/11/14 04:53:34;;;;;;;;;;;;;;;;;;5080812;28;20377;-78
2021/11/14 04:56:00;;;;;;;;;;;;;;;;;;5079914;28;19927;-78
2021/11/14 04:58:25;;;;;;;;;;;;;;;;;;5060601;28;19997;-79
2021/11/14 05:00:51;;;;;;;;;;;;;;;;;;5059397;28;19980;-78
2021/11/14 05:03:17;;;;;;;;;;;;;;;;;;5059044;28;19971;-78
2021/11/14 05:05:43;;;;;;;;;;;;;;;;;;5065259;28;20317;-78
2021/11/14 05:08:09;;;;;;;;;;;;;;;;;;5079903;28;19919;-78
2021/11/14 05:10:35;;;;;;;;;;;;;;;;;;5081091;28;19913;-78
2021/11/14 05:13:00;;;;;;;;;;;;;;;;;;5075530;28;20025;-79
2021/11/14 05:15:26;;;;;;;;;;;;;;;;;;5078732;28;19912;-78
2021/11/14 05:17:51;;;;;;;;;;;;;;;;;;5080261;28;20020;-78
2021/11/14 05:20:17;;;;;;;;;;;;;;;;;;5078918;28;20624;-78
2021/11/14 05:22:42;;;;;;;;;;;;;;;;;;5083657;28;19913;-78
2021/11/14 05:25:08;;;;;;;;;;;;;;;;;;5082855;28;20012;-78
2021/11/14 05:27:33;;;;;;;;;;;;;;;;;;5083725;28;19912;-78
2021/11/14 05:29:58;;;;;;;;;;;;;;;;;;5081890;28;19912;-78
2021/11/14 05:32:24;;;;;;;;;;;;;;;;;;5083464;28;19985;-78
2021/11/14 05:34:50;;;;;;;;;;;;;;;;;;5083365;28;20623;-78
2021/11/14 05:37:15;;;;;;;;;;;;;;;;;;5065550;28;19920;-78
2021/11/14 05:39:40;;;;;;;;;;;;;;;;;;5063830;28;20015;-78
2021/11/14 05:42:06;;;;;;;;;;;;;;;;;;5063416;28;19916;-78
2021/11/14 05:44:31;;;;;;;;;;;;;;;;;;5063674;28;20321;-78
2021/11/14 05:46:57;;;;;;;;;;;;;;;;;;5068836;28;19913;-78
2021/11/14 05:49:22;;;;;;;;;;;;;;;;;;5065106;28;19943;-79
2021/11/14 05:51:47;;;;;;;;;;;;;;;;;;5066087;28;20286;-78
2021/11/14 05:54:12;;;;;;;;;;;;;;;;;;5065024;28;20270;-78
2021/11/14 05:56:38;;;;;;;;;;;;;;;;;;5065275;28;19912;-78
2021/11/14 06:01:36;;;;;;;;;;;;;;;;;;5064274;28;20290;-78
2021/11/14 06:06:26;;;;;;;;;;;;;;;;;;5076285;28;19962;-79
2021/11/14 06:08:52;;;;;;;;;;;;;;;;;;5085622;28;19912;-78
2021/11/14 06:11:17;;;;;;;;;;;;;;;;;;5086227;28;19912;-78
2021/11/14 06:13:43;;;;;;;;;;;;;;;;;;5085279;28;20255;-79
2021/11/14 06:16:08;;;;;;;;;;;;;;;;;;5084276;28;20314;-78
2021/11/14 06:18:34;;;;;;;;;;;;;;;;;;5084051;28;20318;-78
2021/11/14 06:21:00;;;;;;;;;;;;;;;;;;5082820;28;19912;-78
2021/11/14 06:23:26;;;;;;;;;;;;;;;;;;5083942;28;19936;-78
2021/11/14 06:25:51;;;;;;;;;;;;;;;;;;5084382;28;19919;-78
2021/11/14 06:28:17;;;;;;;;;;;;;;;;;;5064250;28;19916;-78
2021/11/14 06:30:42;;;;;;;;;;;;;;;;;;5063694;28;19913;-78
2021/11/14 06:33:07;;;;;;;;;;;;;;;;;;5062657;28;19916;-78
2021/11/14 06:35:33;;;;;;;;;;;;;;;;;;5066549;28;19912;-78
2021/11/14 06:37:58;;;;;;;;;;;;;;;;;;5077256;28;19912;-76
2021/11/14 06:40:24;;;;;;;;;;;;;;;;;;5080847;28;19919;-78
2021/11/14 06:42:49;;;;;;;;;;;;;;;;;;5081126;28;20023;-78
2021/11/14 06:45:14;;;;;;;;;;;;;;;;;;5078745;28;19916;-78
2021/11/14 06:47:40;;;;;;;;;;;;;;;;;;5081411;28;19923;-78
2021/11/14 06:50:05;;;;;;;;;;;;;;;;;;5081147;28;19913;-78
2021/11/14 06:52:31;;;;;;;;;;;;;;;;;;5081498;28;19920;-78
2021/11/14 06:54:56;;;;;;;;;;;;;;;;;;5081029;28;19916;-78
2021/11/14 06:57:22;;;;;;;;;;;;;;;;;;5069925;28;19958;-78
2021/11/14 06:59:47;;;;;;;;;;;;;;;;;;5061797;28;19956;-78
2021/11/14 07:02:13;;;;;;;;;;;;;;;;;;5059696;28;19912;-78
2021/11/14 07:04:38;;;;;;;;;;;;;;;;;;5060459;28;20394;-78
2021/11/14 07:07:03;;;;;;;;;;;;;;;;;;5076700;28;19916;-78
2021/11/14 07:09:29;;;;;;;;;;;;;;;;;;5080453;28;20015;-78
2021/11/14 07:11:54;;;;;;;;;;;;;;;;;;5082580;28;19947;-78
2021/11/14 07:14:21;;;;;;;;;;;;;;;;;;5081955;28;19923;-78
2021/11/14 07:16:46;;;;;;;;;;;;;;;;;;5080782;28;20355;-78
2021/11/14 07:19:12;;;;;;;;;;;;;;;;;;5081470;28;19927;-77
2021/11/14 07:21:37;;;;;;;;;;;;;;;;;;5079665;28;19912;-79
2021/11/14 07:24:03;;;;;;;;;;;;;;;;;;5075479;28;19916;-77
2021/11/14 07:26:28;;;;;;;;;;;;;;;;;;5074221;28;19919;-77
2021/11/14 07:28:53;;;;;;;;;;;;;;;;;;5073438;28;19913;-78
2021/11/14 07:31:19;;;;;;;;;;;;;;;;;;5081119;28;19983;-79
2021/11/14 07:33:44;;;;;;;;;;;;;;;;;;5080459;28;20247;-78
2021/11/14 07:36:10;;;;;;;;;;;;;;;;;;5067947;28;19912;-78
2021/11/14 07:38:35;;;;;;;;;;;;;;;;;;5075427;28;20011;-77
2021/11/14 07:41:01;;;;;;;;;;;;;;;;;;5076645;28;19983;-78
2021/11/14 07:43:28;;;;;;;;;;;;;;;;;;5075410;28;20020;-78
2021/11/14 07:45:53;;;;;;;;;;;;;;;;;;5075158;28;19975;-78
2021/11/14 07:48:18;;;;;;;;;;;;;;;;;;5078884;28;20324;-78
2021/11/14 07:50:44;;;;;;;;;;;;;;;;;;5079307;28;19912;-78
2021/11/14 07:53:09;;;;;;;;;;;;;;;;;;5081333;28;19912;-78
2021/11/14 07:55:35;;;;;;;;;;;;;;;;;;5077947;28;19916;-78
2021/11/14 07:58:04;;;;;;;;;;;;;;;;;;5077719;28;20345;-78
2021/11/14 08:00:30;;;;;;;;;;;;;;;;;;5080740;28;19919;-78
2021/11/14 08:02:55;;;;;;;;;;;;;;;;;;5079460;28;19916;-78
2021/11/14 08:05:21;;;;;;;;;;;;;;;;;;5072048;28;19927;-76
2021/11/14 08:07:47;;;;;;;;;;;;;;;;;;5072368;28;19916;-76
2021/11/14 08:10:14;;;;;;;;;;;;;;;;;;5073803;28;19959;-75
2021/11/14 08:12:39;;;;;;;;;;;;;;;;;;5073629;28;19912;-75
2021/11/14 08:15:06;;;;;;;;;;;;;;;;;;5073804;28;19927;-77
2021/11/14 08:17:31;;;;;;;;;;;;;;;;;;5073864;28;20003;-77
2021/11/14 08:20:00;;;;;;;;;;;;;;;;;;5077851;28;19963;-77
2021/11/14 08:22:26;;;;;;;;;;;;;;;;;;5071035;28;19912;-77
2021/11/14 08:24:51;;;;;;;;;;;;;;;;;;5073372;28;20023;-77
2021/11/14 08:27:17;;;;;;;;;;;;;;;;;;5073419;28;19958;-77
2021/11/14 08:29:42;;;;;;;;;;;;;;;;;;5073421;28;19912;-77
2021/11/14 08:32:08;;;;;;;;;;;;;;;;;;5073401;28;19918;-75
2021/11/14 08:34:33;;;;;;;;;;;;;;;;;;5073695;28;19971;-75
2021/11/14 08:36:59;;;;;;;;;;;;;;;;;;5070388;28;19920;-77
2021/11/14 08:39:24;;;;;;;;;;;;;;;;;;5075426;28;19923;-78
2021/11/14 08:41:50;;;;;;;;;;;;;;;;;;5077527;28;19913;-77
2021/11/14 08:44:15;;;;;;;;;;;;;;;;;;5077806;28;19920;-79
2021/11/14 08:46:41;;;;;;;;;;;;;;;;;;5080061;28;19912;-79
2021/11/14 08:49:21;;;;;;;;;;;;;;;;;;5082355;28;19916;-77
2021/11/14 08:51:46;;;;;;;;;;;;;;;;;;5087707;28;20399;-77
2021/11/14 08:54:12;;;;;;;;;;;;;;;;;;5073494;28;19920;-77
2021/11/14 08:56:39;;;;;;;;;;;;;;;;;;5075815;28;19919;-77
2021/11/14 08:59:05;;;;;;;;;;;;;;;;;;5077282;28;20025;-74
2021/11/14 09:01:31;;;;;;;;;;;;;;;;;;5076669;28;19919;-74
2021/11/14 09:03:57;;;;;;;;;;;;;;;;;;5076796;28;19913;-74
2021/11/14 09:06:22;;;;;;;;;;;;;;;;;;5072524;28;19921;-74
2021/11/14 09:08:48;;;;;;;;;;;;;;;;;;5076702;28;19962;-76
2021/11/14 09:11:13;;;;;;;;;;;;;;;;;;5075355;28;19912;-76
2021/11/14 09:13:39;;;;;;;;;;;;;;;;;;5076529;28;19923;-76
2021/11/14 09:16:04;;;;;;;;;;;;;;;;;;5076669;28;20351;-76
2021/11/14 09:18:30;;;;;;;;;;;;;;;;;;5076679;28;19912;-76
2021/11/14 09:20:55;;;;;;;;;;;;;;;;;;5076591;28;19923;-74
2021/11/14 09:23:22;;;;;;;;;;;;;;;;;;5076519;28;19916;-74
2021/11/14 09:25:47;;;;;;;;;;;;;;;;;;5076457;28;19912;-74
2021/11/14 09:28:14;;;;;;;;;;;;;;;;;;5076548;28;20374;-74
2021/11/14 09:30:42;;;;;;;;;;;;;;;;;;5075104;28;19912;-74
2021/11/14 09:33:08;;;;;;;;;;;;;;;;;;5076138;28;19912;-73
2021/11/14 09:35:33;;;;;;;;;;;;;;;;;;5072619;28;19920;-75
2021/11/14 09:37:58;;;;;;;;;;;;;;;;;;5075247;28;19913;-75
2021/11/14 09:40:24;;;;;;;;;;;;;;;;;;5075643;28;19916;-74
2021/11/14 09:42:49;;;;;;;;;;;;;;;;;;5075958;28;19912;-76
2021/11/14 09:45:14;;;;;;;;;;;;;;;;;;5075923;28;19916;-75
2021/11/14 09:47:40;;;;;;;;;;;;;;;;;;5076174;28;20003;-75
2021/11/14 09:50:07;;;;;;;;;;;;;;;;;;5076290;28;20349;-75
2021/11/14 09:52:32;;;;;;;;;;;;;;;;;;5059389;28;19913;-74
2021/11/14 09:55:00;;;;;;;;;;;;;;;;;;5052091;28;19917;-74
2021/11/14 09:57:25;;;;;;;;;;;;;;;;;;5045079;28;19924;-74
2021/11/14 09:59:51;;;;;;;;;;;;;;;;;;5044836;28;19912;-75
2021/11/14 10:02:17;;;;;;;;;;;;;;;;;;5046291;28;19963;-74
2021/11/14 10:04:42;;;;;;;;;;;;;;;;;;5043726;28;19913;-74
2021/11/14 10:07:12;;;;;;;;;;;;;;;;;;5068563;28;19966;-75
2021/11/14 10:09:40;;;;;;;;;;;;;;;;;;5076104;28;19919;-74
2021/11/14 10:12:14;;;;;;;;;;;;;;;;;;5075372;28;19916;-75
2021/11/14 10:14:40;;;;;;;;;;;;;;;;;;5075770;28;20007;-76
2021/11/14 10:17:31;;;;;;;;;;;;;;;;;;5076087;28;20358;-75
2021/11/14 10:20:00;;;;;;;;;;;;;;;;;;5072028;28;19912;-75
2021/11/14 10:22:25;;;;;;;;;;;;;;;;;;5075435;28;19917;-76
2021/11/14 10:24:51;;;;;;;;;;;;;;;;;;5077028;28;19962;-77
2021/11/14 10:27:17;;;;;;;;;;;;;;;;;;5076683;28;20281;-77
2021/11/14 10:29:46;;;;;;;;;;;;;;;;;;5076591;28;19912;-77
2021/11/14 10:32:15;;;;;;;;;;;;;;;;;;5077695;28;20324;-78
2021/11/14 10:34:51;;;;;;;;;;;;;;;;;;5077652;28;19916;-79
2021/11/14 10:37:20;;;;;;;;;;;;;;;;;;5061130;28;19947;-79
2021/11/14 10:39:55;;;;;;;;;;;;;;;;;;5061845;28;19919;-79
2021/11/14 10:42:24;;;;;;;;;;;;;;;;;;5058854;28;19920;-79
2021/11/14 10:44:51;;;;;;;;;;;;;;;;;;5039120;28;19966;-77
2021/11/14 10:47:22;;;;;;;;;;;;;;;;;;5055177;28;19912;-75
2021/11/14 10:50:00;;;;;;;;;;;;;;;;;;5054747;28;19916;-76
2021/11/14 10:52:26;;;;;;;;;;;;;;;;;;5054823;28;19919;-76
2021/11/14 10:54:56;;;;;;;;;;;;;;;;;;5054670;28;19916;-76
2021/11/14 10:57:23;;;;;;;;;;;;;;;;;;5054674;28;20341;-76
2021/11/14 10:59:49;;;;;;;;;;;;;;;;;;5054947;28;19919;-77
2021/11/14 11:02:15;;;;;;;;;;;;;;;;;;5054886;28;19916;-77
2021/11/14 11:04:40;;;;;;;;;;;;;;;;;;5054658;28;19913;-77
2021/11/14 11:07:06;;;;;;;;;;;;;;;;;;5071023;28;19912;-77
2021/11/14 11:09:32;;;;;;;;;;;;;;;;;;5063591;28;19939;-77
2021/11/14 11:11:58;;;;;;;;;;;;;;;;;;5055215;28;19966;-75
2021/11/14 11:14:25;;;;;;;;;;;;;;;;;;5054344;28;19932;-74
2021/11/14 11:16:50;;;;;;;;;;;;;;;;;;5054382;28;19912;-76
2021/11/14 11:19:23;;;;;;;;;;;;;;;;;;5054475;28;19939;-77
2021/11/14 11:21:49;;;;;;;;;;;;;;;;;;5055154;28;19912;-77
2021/11/14 11:24:17;;;;;;;;;;;;;;;;;;5054303;28;20301;-75
2021/11/14 11:27:01;;;;;;;;;;;;;;;;;;5054370;28;19912;-76
2021/11/14 11:29:27;;;;;;;;;;;;;;;;;;5054213;28;20277;-76
2021/11/14 11:31:53;;;;;;;;;;;;;;;;;;5054979;28;20281;-75
2021/11/14 11:34:20;;;;;;;;;;;;;;;;;;5053649;28;19999;-75
2021/11/14 11:36:46;;;;;;;;;;;;;;;;;;5058211;28;20376;-76
2021/11/14 11:39:12;;;;;;;;;;;;;;;;;;5054102;28;20335;-76
2021/11/14 11:41:40;;;;;;;;;;;;;;;;;;5036038;28;19955;-72
2021/11/14 11:44:05;;;;;;;;;;;;;;;;;;5053600;28;19921;-73
2021/11/14 11:46:32;;;;;;;;;;;;;;;;;;5052697;28;19919;-73
2021/11/14 11:48:59;;;;;;;;;;;;;;;;;;5053863;28;19958;-73
2021/11/14 11:51:29;;;;;;;;;;;;;;;;;;5053975;28;20062;-72
2021/11/14 11:53:56;;;;;;;;;;;;;;;;;;5053338;28;19942;-73
2021/11/14 11:56:22;;;;;;;;;;;;;;;;;;5053739;28;20307;-73
2021/11/14 11:58:48;;;;;;;;;;;;;;;;;;5053749;28;20014;-73
2021/11/14 12:01:27;;;;;;;;;;;;;;;;;;5053449;28;19912;-73
2021/11/14 12:03:53;;;;;;;;;;;;;;;;;;5053554;28;19912;-73
2021/11/14 12:06:23;;;;;;;;;;;;;;;;;;5053720;28;19912;-73
2021/11/14 12:08:50;;;;;;;;;;;;;;;;;;5053532;28;19960;-72
2021/11/14 12:11:45;;;;;;;;;;;;;;;;;;5053490;28;19917;-73
2021/11/14 12:14:16;;;;;;;;;;;;;;;;;;5044477;28;19916;-74
2021/11/14 12:16:52;;;;;;;;;;;;;;;;;;5053672;28;19913;-76
2021/11/14 12:19:23;;;;;;;;;;;;;;;;;;5053635;28;20327;-75
2021/11/14 12:21:59;;;;;;;;;;;;;;;;;;5053512;28;20418;-75
2021/11/14 12:24:25;;;;;;;;;;;;;;;;;;5052220;28;19916;-76
2021/11/14 12:26:50;;;;;;;;;;;;;;;;;;5053832;28;19955;-76
2021/11/14 12:29:24;;;;;;;;;;;;;;;;;;5053660;28;19913;-77
2021/11/14 12:31:52;;;;;;;;;;;;;;;;;;5058410;28;20321;-77
2021/11/14 12:34:19;;;;;;;;;;;;;;;;;;5059009;28;19923;-78
2021/11/14 12:36:46;;;;;;;;;;;;;;;;;;5058774;28;19920;-76
2021/11/14 12:39:17;;;;;;;;;;;;;;;;;;5058385;28;20019;-77
2021/11/14 12:41:57;;;;;;;;;;;;;;;;;;5058304;28;19912;-75
2021/11/14 12:44:31;;;;;;;;;;;;;;;;;;5056826;28;19916;-76
2021/11/14 12:46:57;;;;;;;;;;;;;;;;;;5057376;28;19999;-76
2021/11/14 12:49:22;;;;;;;;;;;;;;;;;;5057613;28;19951;-78
2021/11/14 12:51:52;;;;;;;;;;;;;;;;;;5057924;28;19963;-75
2021/11/14 12:54:17;;;;;;;;;;;;;;;;;;5058371;28;19916;-77
2021/11/14 12:56:44;;;;;;;;;;;;;;;;;;5057459;28;19959;-78
2021/11/14 12:59:24;;;;;;;;;;;;;;;;;;5058047;28;19920;-80
2021/11/14 13:01:50;;;;;;;;;;;;;;;;;;5059134;28;20321;-77
2021/11/14 13:04:20;;;;;;;;;;;;;;;;;;5060460;28;19917;-78
2021/11/14 13:06:45;;;;;;;;;;;;;;;;;;5061300;28;19916;-80
2021/11/14 13:09:15;;;;;;;;;;;;;;;;;;5055928;28;20366;-80
2021/11/14 13:11:41;;;;;;;;;;;;;;;;;;5043353;28;20436;-81
2021/11/14 13:14:08;;;;;;;;;;;;;;;;;;5042755;28;20004;-79
2021/11/14 13:16:34;;;;;;;;;;;;;;;;;;5042720;28;19913;-79
2021/11/14 13:19:01;;;;;;;;;;;;;;;;;;5042224;28;19920;-84
2021/11/14 13:21:29;;;;;;;;;;;;;;;;;;5041873;28;19959;-81
2021/11/14 13:23:59;;;;;;;;;;;;;;;;;;5042292;28;19936;-78
2021/11/14 13:26:31;;;;;;;;;;;;;;;;;;5037292;28;19913;-74
2021/11/14 13:28:58;;;;;;;;;;;;;;;;;;5036670;28;20333;-75
2021/11/14 13:31:24;;;;;;;;;;;;;;;;;;5033272;28;19913;-74
2021/11/14 13:33:59;;;;;;;;;;;;;;;;;;5035733;28;19939;-74
2021/11/14 13:36:24;;;;;;;;;;;;;;;;;;5035780;28;19916;-74
2021/11/14 13:38:50;;;;;;;;;;;;;;;;;;5040232;28;19913;-74
2021/11/14 13:41:16;;;;;;;;;;;;;;;;;;5054880;28;19917;-74
2021/11/14 13:44:11;;;;;;;;;;;;;;;;;;5054769;28;19963;-74
2021/11/14 13:46:36;;;;;;;;;;;;;;;;;;5046892;28;19919;-74
2021/11/14 13:49:01;;;;;;;;;;;;;;;;;;5055911;28;19913;-74
2021/11/14 13:51:29;;;;;;;;;;;;;;;;;;5056214;28;19913;-74
2021/11/14 13:53:54;;;;;;;;;;;;;;;;;;5055755;28;20392;-74
2021/11/14 13:56:20;;;;;;;;;;;;;;;;;;5056029;28;19966;-74
2021/11/14 13:58:51;;;;;;;;;;;;;;;;;;5055871;28;19920;-74
2021/11/14 14:01:24;;;;;;;;;;;;;;;;;;5055949;28;19920;-74
2021/11/14 14:03:49;;;;;;;;;;;;;;;;;;5055707;28;19927;-74
2021/11/14 14:06:16;;;;;;;;;;;;;;;;;;5055591;28;19917;-74
2021/11/14 14:08:41;;;;;;;;;;;;;;;;;;5055817;28;19913;-74
2021/11/14 14:11:09;;;;;;;;;;;;;;;;;;5055558;28;20346;-74
2021/11/14 14:13:35;;;;;;;;;;;;;;;;;;5055600;28;19923;-74
2021/11/14 14:16:01;;;;;;;;;;;;;;;;;;5055735;28;19913;-74
2021/11/14 14:18:27;;;;;;;;;;;;;;;;;;5055471;28;19919;-74
2021/11/14 14:20:55;;;;;;;;;;;;;;;;;;5055766;28;20405;-74
2021/11/14 14:23:24;;;;;;;;;;;;;;;;;;5055306;28;19954;-74
2021/11/14 14:25:49;;;;;;;;;;;;;;;;;;5055634;28;20049;-74
2021/11/14 14:28:18;;;;;;;;;;;;;;;;;;5054323;28;20003;-74
2021/11/14 14:30:44;;;;;;;;;;;;;;;;;;5055303;28;20355;-74
2021/11/14 14:33:11;;;;;;;;;;;;;;;;;;5055257;28;19913;-74
2021/11/14 14:35:41;;;;;;;;;;;;;;;;;;5055361;28;19912;-74
2021/11/14 14:38:08;;;;;;;;;;;;;;;;;;5055254;28;19913;-74
2021/11/14 14:40:33;;;;;;;;;;;;;;;;;;5055259;28;19934;-74
2021/11/14 14:42:59;;;;;;;;;;;;;;;;;;5054691;28;19916;-74
2021/11/14 14:45:26;;;;;;;;;;;;;;;;;;5054958;28;19927;-74
2021/11/14 14:48:02;;;;;;;;;;;;;;;;;;5053945;28;20010;-74
2021/11/14 14:50:28;;;;;;;;;;;;;;;;;;5055131;28;19913;-74
2021/11/14 14:52:54;;;;;;;;;;;;;;;;;;5054845;28;20338;-74
2021/11/14 14:55:20;;;;;;;;;;;;;;;;;;5054643;28;19920;-74
2021/11/14 14:57:45;;;;;;;;;;;;;;;;;;5054777;28;20001;-74
2021/11/14 15:00:11;;;;;;;;;;;;;;;;;;5054945;28;19916;-74
2021/11/14 15:02:37;;;;;;;;;;;;;;;;;;5054792;28;19912;-73
2021/11/14 15:05:03;;;;;;;;;;;;;;;;;;5052987;28;20023;-75
2021/11/14 15:07:28;;;;;;;;;;;;;;;;;;5054273;28;19960;-75
2021/11/14 15:09:58;;;;;;;;;;;;;;;;;;5054525;28;19980;-75
2021/11/14 15:12:25;;;;;;;;;;;;;;;;;;5054517;28;20406;-75
2021/11/14 15:15:03;;;;;;;;;;;;;;;;;;5054284;28;19920;-74
2021/11/14 15:17:33;;;;;;;;;;;;;;;;;;5054251;28;19935;-75
2021/11/14 15:20:06;;;;;;;;;;;;;;;;;;5054117;28;19942;-74
2021/11/14 15:22:33;;;;;;;;;;;;;;;;;;5042305;28;19920;-75
2021/11/14 15:25:04;;;;;;;;;;;;;;;;;;5034306;28;19962;-74
2021/11/14 15:27:29;;;;;;;;;;;;;;;;;;5034423;28;19913;-74
2021/11/14 15:29:54;;;;;;;;;;;;;;;;;;5034217;28;20457;-74
2021/11/14 15:32:20;;;;;;;;;;;;;;;;;;5034188;28;20357;-74
2021/11/14 15:34:45;;;;;;;;;;;;;;;;;;5033827;28;19921;-74
2021/11/14 15:37:14;;;;;;;;;;;;;;;;;;5033940;28;20043;-75
2021/11/14 15:39:40;;;;;;;;;;;;;;;;;;5044973;28;19966;-75
2021/11/14 15:42:06;;;;;;;;;;;;;;;;;;5054186;28;20005;-75
2021/11/14 15:44:32;;;;;;;;;;;;;;;;;;5053477;28;19924;-74
2021/11/14 15:46:57;;;;;;;;;;;;;;;;;;5052514;28;19913;-75
2021/11/14 15:49:22;;;;;;;;;;;;;;;;;;5053997;28;19920;-75
2021/11/14 15:51:48;;;;;;;;;;;;;;;;;;5053784;28;20381;-75
2021/11/14 15:54:14;;;;;;;;;;;;;;;;;;5053618;28;19917;-75
2021/11/14 15:56:39;;;;;;;;;;;;;;;;;;5053283;28;19919;-74
2021/11/14 15:59:05;;;;;;;;;;;;;;;;;;5053671;28;20441;-75
2021/11/14 16:01:30;;;;;;;;;;;;;;;;;;5052588;28;19958;-75
2021/11/14 16:03:57;;;;;;;;;;;;;;;;;;5053525;28;19924;-75
2021/11/14 16:06:23;;;;;;;;;;;;;;;;;;5052934;28;19931;-74
2021/11/14 16:08:51;;;;;;;;;;;;;;;;;;5053452;28;19943;-75
2021/11/14 16:11:17;;;;;;;;;;;;;;;;;;5053704;28;20370;-75
2021/11/14 16:13:42;;;;;;;;;;;;;;;;;;5052492;28;19917;-75
2021/11/14 16:16:08;;;;;;;;;;;;;;;;;;5042884;28;19959;-74
2021/11/14 16:18:33;;;;;;;;;;;;;;;;;;5044214;28;20275;-75
2021/11/14 16:20:59;;;;;;;;;;;;;;;;;;5042513;28;19951;-75
2021/11/14 16:23:24;;;;;;;;;;;;;;;;;;5042983;28;19924;-75
2021/11/14 16:25:49;;;;;;;;;;;;;;;;;;5044109;28;19913;-75
2021/11/14 16:28:15;;;;;;;;;;;;;;;;;;5042161;28;19917;-75
2021/11/14 16:30:40;;;;;;;;;;;;;;;;;;5043975;28;20283;-75
2021/11/14 16:33:08;;;;;;;;;;;;;;;;;;5040156;28;19920;-75
2021/11/14 16:35:36;;;;;;;;;;;;;;;;;;5042338;28;20025;-75
2021/11/14 16:38:01;;;;;;;;;;;;;;;;;;5043761;28;19912;-75
2021/11/14 16:40:30;;;;;;;;;;;;;;;;;;5040118;28;19980;-75
2021/11/14 16:42:56;;;;;;;;;;;;;;;;;;5042503;28;19920;-76
2021/11/14 16:45:24;;;;;;;;;;;;;;;;;;5041857;28;19913;-75
2021/11/14 16:47:50;;;;;;;;;;;;;;;;;;5042495;28;20361;-74